sensor_id;sensor_type;location;lat;lon;timestamp;P1;P2;P0
77538;PMS7003;66665;51.656;16.106;2023-02-02T00:00:25;0;0;0
77538;PMS7003;66665;51.656;16.106;2023-02-02T00:03:32;0;0;0
77538;PMS7003;66665;51.656;16.106;2023-02-02T00:06:34;0;0;0
77538;PMS7003;66665;51.656;16.106;2023-02-02T00:09:36;0;0;0
77538;PMS7003;66665;51.656;16.106;2023-02-02T00:12:38;2;0;0
77538;PMS7003;66665;51.656;16.106;2023-02-02T00:15:46;0;0;0
77538;PMS7003;66665;51.656;16.106;2023-02-02T00:18:47;0;0;0
77538;PMS7003;66665;51.656;16.106;2023-02-02T00:21:49;0;0;0
77538;PMS7003;66665;51.656;16.106;2023-02-02T00:24:51;0;0;0
77538;PMS7003;66665;51.656;16.106;2023-02-02T00:27:54;0;0;0
77538;PMS7003;66665;51.656;16.106;2023-02-02T00:31:06;1;0;0
77538;PMS7003;66665;51.656;16.106;2023-02-02T00:34:11;0;0;0
77538;PMS7003;66665;51.656;16.106;2023-02-02T00:37:15;0;0;0
77538;PMS7003;66665;51.656;16.106;2023-02-02T00:40:17;0;0;0
77538;PMS7003;66665;51.656;16.106;2023-02-02T00:43:19;0;0;0
77538;PMS7003;66665;51.656;16.106;2023-02-02T00:46:27;0;0;0
77538;PMS7003;66665;51.656;16.106;2023-02-02T00:49:29;0;0;0
77538;PMS7003;66665;51.656;16.106;2023-02-02T00:52:31;0;0;0
77538;PMS7003;66665;51.656;16.106;2023-02-02T00:55:33;0;0;0
77538;PMS7003;66665;51.656;16.106;2023-02-02T00:58:35;0;0;0
77538;PMS7003;66665;51.656;16.106;2023-02-02T01:01:36;0;0;0
77538;PMS7003;66665;51.656;16.106;2023-02-02T01:04:39;0;0;0
77538;PMS7003;66665;51.656;16.106;2023-02-02T01:07:44;0;0;0
77538;PMS7003;66665;51.656;16.106;2023-02-02T01:10:46;0;0;0
77538;PMS7003;66665;51.656;16.106;2023-02-02T01:13:48;0;0;0
77538;PMS7003;66665;51.656;16.106;2023-02-02T01:16:49;0;0;0
77538;PMS7003;66665;51.656;16.106;2023-02-02T01:19:51;0;0;0
77538;PMS7003;66665;51.656;16.106;2023-02-02T01:23:04;0;0;0
77538;PMS7003;66665;51.656;16.106;2023-02-02T01:26:07;0;0;0
77538;PMS7003;66665;51.656;16.106;2023-02-02T01:29:11;0;0;0
77538;PMS7003;66665;51.656;16.106;2023-02-02T01:32:13;0;0;0
77538;PMS7003;66665;51.656;16.106;2023-02-02T01:35:14;0;0;0
77538;PMS7003;66665;51.656;16.106;2023-02-02T01:38:25;1;0;0
77538;PMS7003;66665;51.656;16.106;2023-02-02T01:41:27;0;0;0
77538;PMS7003;66665;51.656;16.106;2023-02-02T01:47:53;0;0;0
77538;PMS7003;66665;51.656;16.106;2023-02-02T01:51:01;0;0;0
77538;PMS7003;66665;51.656;16.106;2023-02-02T01:54:06;3;0;0
77538;PMS7003;66665;51.656;16.106;2023-02-02T01:57:20;0;0;0
77538;PMS7003;66665;51.656;16.106;2023-02-02T02:00:28;0;0;0
77538;PMS7003;66665;51.656;16.106;2023-02-02T02:03:31;0;0;0
77538;PMS7003;66665;51.656;16.106;2023-02-02T02:06:44;2;0;0
77538;PMS7003;66665;51.656;16.106;2023-02-02T02:09:48;0;0;0
77538;PMS7003;66665;51.656;16.106;2023-02-02T02:12:50;0;0;0
77538;PMS7003;66665;51.656;16.106;2023-02-02T02:15:56;0;0;0
77538;PMS7003;66665;51.656;16.106;2023-02-02T02:32:39;1;0;0
77538;PMS7003;66665;51.656;16.106;2023-02-02T02:39:10;0;0;0
77538;PMS7003;66665;51.656;16.106;2023-02-02T02:42:29;0;0;0
77538;PMS7003;66665;51.656;16.106;2023-02-02T02:45:36;0;0;0
77538;PMS7003;66665;51.656;16.106;2023-02-02T02:48:42;0;0;0
77538;PMS7003;66665;51.656;16.106;2023-02-02T02:51:55;0;0;0
77538;PMS7003;66665;51.656;16.106;2023-02-02T02:54:57;0;0;0
77538;PMS7003;66665;51.656;16.106;2023-02-02T02:58:03;0;0;0
77538;PMS7003;66665;51.656;16.106;2023-02-02T03:01:25;0;0;0
77538;PMS7003;66665;51.656;16.106;2023-02-02T03:07:47;0;0;0
77538;PMS7003;66665;51.656;16.106;2023-02-02T03:10:55;0;0;0
77538;PMS7003;66665;51.656;16.106;2023-02-02T03:14:00;0;0;0
77538;PMS7003;66665;51.656;16.106;2023-02-02T03:17:02;0;0;0
77538;PMS7003;66665;51.656;16.106;2023-02-02T03:20:05;0;0;0
77538;PMS7003;66665;51.656;16.106;2023-02-02T03:23:07;0;0;0
77538;PMS7003;66665;51.656;16.106;2023-02-02T03:26:12;0;0;0
77538;PMS7003;66665;51.656;16.106;2023-02-02T03:29:15;0;0;0
77538;PMS7003;66665;51.656;16.106;2023-02-02T03:32:17;0;0;0
77538;PMS7003;66665;51.656;16.106;2023-02-02T03:35:19;0;0;0
77538;PMS7003;66665;51.656;16.106;2023-02-02T03:38:21;0;0;0
77538;PMS7003;66665;51.656;16.106;2023-02-02T03:41:33;0;0;0
77538;PMS7003;66665;51.656;16.106;2023-02-02T03:44:34;0;0;0
77538;PMS7003;66665;51.656;16.106;2023-02-02T03:47:37;0;0;0
77538;PMS7003;66665;51.656;16.106;2023-02-02T03:50:38;0;0;0
77538;PMS7003;66665;51.656;16.106;2023-02-02T03:53:40;2;0;0
77538;PMS7003;66665;51.656;16.106;2023-02-02T03:56:53;0;0;0
77538;PMS7003;66665;51.656;16.106;2023-02-02T03:59:55;0;0;0
77538;PMS7003;66665;51.656;16.106;2023-02-02T04:02:57;0;0;0
77538;PMS7003;66665;51.656;16.106;2023-02-02T04:05:59;0;0;0
77538;PMS7003;66665;51.656;16.106;2023-02-02T04:09:01;0;0;0
77538;PMS7003;66665;51.656;16.106;2023-02-02T04:12:14;0;0;0
77538;PMS7003;66665;51.656;16.106;2023-02-02T04:15:16;0;0;0
77538;PMS7003;66665;51.656;16.106;2023-02-02T04:18:18;0;0;0
77538;PMS7003;66665;51.656;16.106;2023-02-02T04:21:20;0;0;0
77538;PMS7003;66665;51.656;16.106;2023-02-02T04:24:22;0;0;0
77538;PMS7003;66665;51.656;16.106;2023-02-02T04:27:24;0;0;0
77538;PMS7003;66665;51.656;16.106;2023-02-02T04:30:26;0;0;0
77538;PMS7003;66665;51.656;16.106;2023-02-02T04:33:30;0;0;0
77538;PMS7003;66665;51.656;16.106;2023-02-02T04:36:36;0;0;0
77538;PMS7003;66665;51.656;16.106;2023-02-02T04:39:38;0;0;0
77538;PMS7003;66665;51.656;16.106;2023-02-02T04:42:40;0;0;0
77538;PMS7003;66665;51.656;16.106;2023-02-02T04:45:42;0;0;0
77538;PMS7003;66665;51.656;16.106;2023-02-02T04:48:51;0;0;0
77538;PMS7003;66665;51.656;16.106;2023-02-02T04:51:53;0;0;0
77538;PMS7003;66665;51.656;16.106;2023-02-02T04:54:55;0;0;0
77538;PMS7003;66665;51.656;16.106;2023-02-02T04:57:56;0;0;0
77538;PMS7003;66665;51.656;16.106;2023-02-02T05:00:58;0;0;0
77538;PMS7003;66665;51.656;16.106;2023-02-02T05:04:00;0;0;0
77538;PMS7003;66665;51.656;16.106;2023-02-02T05:07:02;0;0;0
77538;PMS7003;66665;51.656;16.106;2023-02-02T05:10:07;0;0;0
77538;PMS7003;66665;51.656;16.106;2023-02-02T05:13:10;0;0;0
77538;PMS7003;66665;51.656;16.106;2023-02-02T05:16:12;0;0;0
77538;PMS7003;66665;51.656;16.106;2023-02-02T05:19:15;0;0;0
77538;PMS7003;66665;51.656;16.106;2023-02-02T05:22:17;0;0;0
77538;PMS7003;66665;51.656;16.106;2023-02-02T05:25:28;0;0;0
77538;PMS7003;66665;51.656;16.106;2023-02-02T05:28:29;0;0;0
77538;PMS7003;66665;51.656;16.106;2023-02-02T05:31:31;0;0;0
77538;PMS7003;66665;51.656;16.106;2023-02-02T05:34:33;0;0;0
77538;PMS7003;66665;51.656;16.106;2023-02-02T05:37:35;0;0;0
77538;PMS7003;66665;51.656;16.106;2023-02-02T05:40:37;0;0;0
77538;PMS7003;66665;51.656;16.106;2023-02-02T05:43:39;0;0;0
77538;PMS7003;66665;51.656;16.106;2023-02-02T05:46:44;0;0;0
77538;PMS7003;66665;51.656;16.106;2023-02-02T05:49:46;1;0;0
77538;PMS7003;66665;51.656;16.106;2023-02-02T05:52:48;0;0;0
77538;PMS7003;66665;51.656;16.106;2023-02-02T05:55:51;0;0;0
77538;PMS7003;66665;51.656;16.106;2023-02-02T05:58:53;0;0;0
77538;PMS7003;66665;51.656;16.106;2023-02-02T06:02:05;0;0;0
77538;PMS7003;66665;51.656;16.106;2023-02-02T06:05:07;0;0;0
77538;PMS7003;66665;51.656;16.106;2023-02-02T06:08:09;0;0;0
77538;PMS7003;66665;51.656;16.106;2023-02-02T06:11:12;0;0;0
77538;PMS7003;66665;51.656;16.106;2023-02-02T06:14:16;0;0;0
77538;PMS7003;66665;51.656;16.106;2023-02-02T06:17:25;0;0;0
77538;PMS7003;66665;51.656;16.106;2023-02-02T06:20:27;0;0;0
77538;PMS7003;66665;51.656;16.106;2023-02-02T06:23:29;0;0;0
77538;PMS7003;66665;51.656;16.106;2023-02-02T06:26:32;0;0;0
77538;PMS7003;66665;51.656;16.106;2023-02-02T06:29:34;0;0;0
77538;PMS7003;66665;51.656;16.106;2023-02-02T06:32:46;0;0;0
77538;PMS7003;66665;51.656;16.106;2023-02-02T06:35:48;0;0;0
77538;PMS7003;66665;51.656;16.106;2023-02-02T06:38:50;0;0;0
77538;PMS7003;66665;51.656;16.106;2023-02-02T06:41:54;0;0;0
77538;PMS7003;66665;51.656;16.106;2023-02-02T06:44:56;0;0;0
77538;PMS7003;66665;51.656;16.106;2023-02-02T06:48:07;0;0;0
77538;PMS7003;66665;51.656;16.106;2023-02-02T06:51:11;0;0;0
77538;PMS7003;66665;51.656;16.106;2023-02-02T06:54:13;0;0;0
77538;PMS7003;66665;51.656;16.106;2023-02-02T06:57:15;0;0;0
77538;PMS7003;66665;51.656;16.106;2023-02-02T07:00:17;0;0;0
77538;PMS7003;66665;51.656;16.106;2023-02-02T07:03:28;0;0;0
77538;PMS7003;66665;51.656;16.106;2023-02-02T07:06:30;0;0;0
77538;PMS7003;66665;51.656;16.106;2023-02-02T07:09:33;0;0;0
77538;PMS7003;66665;51.656;16.106;2023-02-02T07:12:36;0;0;0
77538;PMS7003;66665;51.656;16.106;2023-02-02T07:15:38;0;0;0
77538;PMS7003;66665;51.656;16.106;2023-02-02T07:18:48;0;0;0
77538;PMS7003;66665;51.656;16.106;2023-02-02T07:21:50;0;0;0
77538;PMS7003;66665;51.656;16.106;2023-02-02T07:24:52;0;0;0
77538;PMS7003;66665;51.656;16.106;2023-02-02T07:27:54;0;0;0
77538;PMS7003;66665;51.656;16.106;2023-02-02T07:30:55;0;0;0
77538;PMS7003;66665;51.656;16.106;2023-02-02T07:35:12;0;0;0
77538;PMS7003;66665;51.656;16.106;2023-02-02T07:38:15;0;0;0
77538;PMS7003;66665;51.656;16.106;2023-02-02T07:41:17;0;0;0
77538;PMS7003;66665;51.656;16.106;2023-02-02T07:44:19;0;0;0
77538;PMS7003;66665;51.656;16.106;2023-02-02T07:47:20;0;0;0
77538;PMS7003;66665;51.656;16.106;2023-02-02T07:50:22;0;0;0
77538;PMS7003;66665;51.656;16.106;2023-02-02T07:53:27;0;0;0
77538;PMS7003;66665;51.656;16.106;2023-02-02T07:56:30;0;0;0
77538;PMS7003;66665;51.656;16.106;2023-02-02T07:59:32;0;0;0
77538;PMS7003;66665;51.656;16.106;2023-02-02T08:02:34;0;0;0
77538;PMS7003;66665;51.656;16.106;2023-02-02T08:05:37;0;0;0
77538;PMS7003;66665;51.656;16.106;2023-02-02T08:08:48;0;0;0
77538;PMS7003;66665;51.656;16.106;2023-02-02T08:11:50;0;0;0
77538;PMS7003;66665;51.656;16.106;2023-02-02T08:14:52;0;0;0
77538;PMS7003;66665;51.656;16.106;2023-02-02T08:17:54;0;0;0
77538;PMS7003;66665;51.656;16.106;2023-02-02T08:20:59;0;0;0
77538;PMS7003;66665;51.656;16.106;2023-02-02T08:24:08;0;0;0
77538;PMS7003;66665;51.656;16.106;2023-02-02T08:27:10;0;0;0
77538;PMS7003;66665;51.656;16.106;2023-02-02T08:30:12;0;0;0
77538;PMS7003;66665;51.656;16.106;2023-02-02T08:33:14;0;0;0
77538;PMS7003;66665;51.656;16.106;2023-02-02T08:36:17;0;0;0
77538;PMS7003;66665;51.656;16.106;2023-02-02T08:39:29;0;0;0
77538;PMS7003;66665;51.656;16.106;2023-02-02T08:42:31;0;0;0
77538;PMS7003;66665;51.656;16.106;2023-02-02T08:45:33;0;0;0
77538;PMS7003;66665;51.656;16.106;2023-02-02T08:48:35;0;0;0
77538;PMS7003;66665;51.656;16.106;2023-02-02T08:51:37;0;0;0
77538;PMS7003;66665;51.656;16.106;2023-02-02T08:54:39;0;0;0
77538;PMS7003;66665;51.656;16.106;2023-02-02T08:57:41;0;0;0
77538;PMS7003;66665;51.656;16.106;2023-02-02T09:00:46;0;0;0
77538;PMS7003;66665;51.656;16.106;2023-02-02T09:03:51;0;0;0
77538;PMS7003;66665;51.656;16.106;2023-02-02T09:06:57;0;0;0
77538;PMS7003;66665;51.656;16.106;2023-02-02T09:09:59;0;0;0
77538;PMS7003;66665;51.656;16.106;2023-02-02T09:13:01;0;0;0
77538;PMS7003;66665;51.656;16.106;2023-02-02T09:16:08;0;0;0
77538;PMS7003;66665;51.656;16.106;2023-02-02T09:19:11;0;0;0
77538;PMS7003;66665;51.656;16.106;2023-02-02T09:22:13;0;0;0
77538;PMS7003;66665;51.656;16.106;2023-02-02T09:25:15;0;0;0
77538;PMS7003;66665;51.656;16.106;2023-02-02T09:28:17;0;0;0
77538;PMS7003;66665;51.656;16.106;2023-02-02T09:31:28;0;0;0
77538;PMS7003;66665;51.656;16.106;2023-02-02T09:34:34;0;0;0
77538;PMS7003;66665;51.656;16.106;2023-02-02T09:37:36;0;0;0
77538;PMS7003;66665;51.656;16.106;2023-02-02T09:40:38;0;0;0
77538;PMS7003;66665;51.656;16.106;2023-02-02T09:43:44;2;0;0
77538;PMS7003;66665;51.656;16.106;2023-02-02T09:50:14;0;0;0
77538;PMS7003;66665;51.656;16.106;2023-02-02T09:56:42;0;0;0
77538;PMS7003;66665;51.656;16.106;2023-02-02T09:59:58;0;0;0
77538;PMS7003;66665;51.656;16.106;2023-02-02T10:03:05;0;0;0
77538;PMS7003;66665;51.656;16.106;2023-02-02T10:16:13;0;0;0
77538;PMS7003;66665;51.656;16.106;2023-02-02T10:19:18;0;0;0
77538;PMS7003;66665;51.656;16.106;2023-02-02T10:22:26;0;0;0
77538;PMS7003;66665;51.656;16.106;2023-02-02T10:25:33;0;0;0
77538;PMS7003;66665;51.656;16.106;2023-02-02T10:44:53;0;0;0
77538;PMS7003;66665;51.656;16.106;2023-02-02T10:47:56;0;0;0
77538;PMS7003;66665;51.656;16.106;2023-02-02T10:54:28;0;0;0
77538;PMS7003;66665;51.656;16.106;2023-02-02T11:00:50;0;0;0
77538;PMS7003;66665;51.656;16.106;2023-02-02T11:03:55;1;0;0
77538;PMS7003;66665;51.656;16.106;2023-02-02T11:07:09;0;0;0
77538;PMS7003;66665;51.656;16.106;2023-02-02T11:10:20;0;0;0
77538;PMS7003;66665;51.656;16.106;2023-02-02T11:16:34;0;0;0
77538;PMS7003;66665;51.656;16.106;2023-02-02T11:19:40;0;0;0
77538;PMS7003;66665;51.656;16.106;2023-02-02T11:22:43;0;0;0
77538;PMS7003;66665;51.656;16.106;2023-02-02T11:25:45;0;0;0
77538;PMS7003;66665;51.656;16.106;2023-02-02T11:29:12;0;0;0
77538;PMS7003;66665;51.656;16.106;2023-02-02T11:32:36;0;0;0
77538;PMS7003;66665;51.656;16.106;2023-02-02T11:35:31;0;0;0
77538;PMS7003;66665;51.656;16.106;2023-02-02T11:38:36;0;0;0
77538;PMS7003;66665;51.656;16.106;2023-02-02T11:41:38;0;0;0
77538;PMS7003;66665;51.656;16.106;2023-02-02T11:51:21;0;0;0
77538;PMS7003;66665;51.656;16.106;2023-02-02T11:54:26;0;0;0
77538;PMS7003;66665;51.656;16.106;2023-02-02T11:57:31;0;0;0
77538;PMS7003;66665;51.656;16.106;2023-02-02T12:00:33;1;0;0
77538;PMS7003;66665;51.656;16.106;2023-02-02T12:03:38;0;0;0
77538;PMS7003;66665;51.656;16.106;2023-02-02T12:06:40;2;0;0
77538;PMS7003;66665;51.656;16.106;2023-02-02T12:09:42;0;0;0
77538;PMS7003;66665;51.656;16.106;2023-02-02T12:16:13;2;0;0
77538;PMS7003;66665;51.656;16.106;2023-02-02T12:29:20;0;0;0
77538;PMS7003;66665;51.656;16.106;2023-02-02T13:02:02;0;0;0
77538;PMS7003;66665;51.656;16.106;2023-02-02T13:05:27;0;0;0
77538;PMS7003;66665;51.656;16.106;2023-02-02T13:08:40;1;0;0
77538;PMS7003;66665;51.656;16.106;2023-02-02T13:11:46;0;0;0
77538;PMS7003;66665;51.656;16.106;2023-02-02T13:18:12;0;0;0
77538;PMS7003;66665;51.656;16.106;2023-02-02T13:21:18;0;0;0
77538;PMS7003;66665;51.656;16.106;2023-02-02T13:24:28;0;0;0
77538;PMS7003;66665;51.656;16.106;2023-02-02T13:27:33;0;0;0
77538;PMS7003;66665;51.656;16.106;2023-02-02T13:30:39;1;0;0
77538;PMS7003;66665;51.656;16.106;2023-02-02T13:33:52;0;0;0
77538;PMS7003;66665;51.656;16.106;2023-02-02T13:37:10;0;0;0
77538;PMS7003;66665;51.656;16.106;2023-02-02T13:40:17;0;0;0
77538;PMS7003;66665;51.656;16.106;2023-02-02T13:43:30;0;0;0
77538;PMS7003;66665;51.656;16.106;2023-02-02T13:46:51;0;0;0
77538;PMS7003;66665;51.656;16.106;2023-02-02T13:50:00;0;0;0
77538;PMS7003;66665;51.656;16.106;2023-02-02T13:53:12;0;0;0
77538;PMS7003;66665;51.656;16.106;2023-02-02T14:02:50;0;0;0
77538;PMS7003;66665;51.656;16.106;2023-02-02T14:09:14;0;0;0
77538;PMS7003;66665;51.656;16.106;2023-02-02T14:12:25;0;0;0
77538;PMS7003;66665;51.656;16.106;2023-02-02T14:22:14;1;0;0
77538;PMS7003;66665;51.656;16.106;2023-02-02T14:28:38;0;0;0
77538;PMS7003;66665;51.656;16.106;2023-02-02T14:41:46;0;0;0
77538;PMS7003;66665;51.656;16.106;2023-02-02T14:48:20;0;0;0
77538;PMS7003;66665;51.656;16.106;2023-02-02T14:51:24;0;0;0
77538;PMS7003;66665;51.656;16.106;2023-02-02T14:54:33;0;0;0
77538;PMS7003;66665;51.656;16.106;2023-02-02T14:57:38;0;0;0
77538;PMS7003;66665;51.656;16.106;2023-02-02T15:00:42;0;0;0
77538;PMS7003;66665;51.656;16.106;2023-02-02T15:13:42;0;0;0
77538;PMS7003;66665;51.656;16.106;2023-02-02T15:16:50;0;0;0
77538;PMS7003;66665;51.656;16.106;2023-02-02T15:23:13;0;0;0
77538;PMS7003;66665;51.656;16.106;2023-02-02T15:26:34;0;0;0
77538;PMS7003;66665;51.656;16.106;2023-02-02T15:29:43;0;0;0
77538;PMS7003;66665;51.656;16.106;2023-02-02T15:32:48;0;0;0
77538;PMS7003;66665;51.656;16.106;2023-02-02T15:35:59;0;0;0
77538;PMS7003;66665;51.656;16.106;2023-02-02T15:42:23;0;0;0
77538;PMS7003;66665;51.656;16.106;2023-02-02T15:45:47;0;0;0
77538;PMS7003;66665;51.656;16.106;2023-02-02T15:52:16;0;0;0
77538;PMS7003;66665;51.656;16.106;2023-02-02T15:58:36;0;0;0
77538;PMS7003;66665;51.656;16.106;2023-02-02T16:01:48;0;0;0
77538;PMS7003;66665;51.656;16.106;2023-02-02T16:04:53;0;0;0
77538;PMS7003;66665;51.656;16.106;2023-02-02T16:07:58;0;0;0
77538;PMS7003;66665;51.656;16.106;2023-02-02T16:11:03;4;0;0
77538;PMS7003;66665;51.656;16.106;2023-02-02T16:14:11;0;0;0
77538;PMS7003;66665;51.656;16.106;2023-02-02T16:17:31;0;0;0
77538;PMS7003;66665;51.656;16.106;2023-02-02T16:20:35;0;0;0
77538;PMS7003;66665;51.656;16.106;2023-02-02T16:23:39;0;0;0
77538;PMS7003;66665;51.656;16.106;2023-02-02T16:26:52;0;0;0
77538;PMS7003;66665;51.656;16.106;2023-02-02T16:29:59;0;0;0
77538;PMS7003;66665;51.656;16.106;2023-02-02T16:36:23;0;0;0
77538;PMS7003;66665;51.656;16.106;2023-02-02T16:39:29;0;0;0
77538;PMS7003;66665;51.656;16.106;2023-02-02T16:42:31;0;0;0
77538;PMS7003;66665;51.656;16.106;2023-02-02T16:45:36;0;0;0
77538;PMS7003;66665;51.656;16.106;2023-02-02T16:55:22;0;0;0
77538;PMS7003;66665;51.656;16.106;2023-02-02T16:58:25;0;0;0
77538;PMS7003;66665;51.656;16.106;2023-02-02T17:01:35;0;0;0
77538;PMS7003;66665;51.656;16.106;2023-02-02T17:04:51;0;0;0
77538;PMS7003;66665;51.656;16.106;2023-02-02T17:08:02;0;0;0
77538;PMS7003;66665;51.656;16.106;2023-02-02T17:14:28;0;0;0
77538;PMS7003;66665;51.656;16.106;2023-02-02T17:17:32;0;0;0
77538;PMS7003;66665;51.656;16.106;2023-02-02T17:20:34;0;0;0
77538;PMS7003;66665;51.656;16.106;2023-02-02T17:23:42;3;0;0
77538;PMS7003;66665;51.656;16.106;2023-02-02T17:26:45;0;0;0
77538;PMS7003;66665;51.656;16.106;2023-02-02T17:29:48;0;0;0
77538;PMS7003;66665;51.656;16.106;2023-02-02T17:32:50;0;0;0
77538;PMS7003;66665;51.656;16.106;2023-02-02T17:35:52;0;0;0
77538;PMS7003;66665;51.656;16.106;2023-02-02T17:39:03;0;0;0
77538;PMS7003;66665;51.656;16.106;2023-02-02T17:42:05;0;0;0
77538;PMS7003;66665;51.656;16.106;2023-02-02T17:48:29;0;0;0
77538;PMS7003;66665;51.656;16.106;2023-02-02T17:51:31;1;0;0
77538;PMS7003;66665;51.656;16.106;2023-02-02T17:54:39;0;0;0
77538;PMS7003;66665;51.656;16.106;2023-02-02T17:57:40;0;0;0
77538;PMS7003;66665;51.656;16.106;2023-02-02T18:00:45;0;0;0
77538;PMS7003;66665;51.656;16.106;2023-02-02T18:03:53;0;0;0
77538;PMS7003;66665;51.656;16.106;2023-02-02T18:06:55;0;0;0
77538;PMS7003;66665;51.656;16.106;2023-02-02T18:09:57;0;0;0
77538;PMS7003;66665;51.656;16.106;2023-02-02T18:12:59;0;0;0
77538;PMS7003;66665;51.656;16.106;2023-02-02T18:16:01;0;0;0
77538;PMS7003;66665;51.656;16.106;2023-02-02T18:19:10;0;0;0
77538;PMS7003;66665;51.656;16.106;2023-02-02T18:22:12;3;0;0
77538;PMS7003;66665;51.656;16.106;2023-02-02T18:25:14;0;0;0
77538;PMS7003;66665;51.656;16.106;2023-02-02T18:28:17;0;0;0
77538;PMS7003;66665;51.656;16.106;2023-02-02T18:31:20;0;0;0
77538;PMS7003;66665;51.656;16.106;2023-02-02T18:34:32;0;0;0
77538;PMS7003;66665;51.656;16.106;2023-02-02T18:37:36;0;0;0
77538;PMS7003;66665;51.656;16.106;2023-02-02T18:40:39;0;0;0
77538;PMS7003;66665;51.656;16.106;2023-02-02T18:43:41;0;0;0
77538;PMS7003;66665;51.656;16.106;2023-02-02T18:46:45;0;0;0
77538;PMS7003;66665;51.656;16.106;2023-02-02T18:49:52;0;0;0
77538;PMS7003;66665;51.656;16.106;2023-02-02T18:52:54;0;0;0
77538;PMS7003;66665;51.656;16.106;2023-02-02T18:55:56;0;0;0
77538;PMS7003;66665;51.656;16.106;2023-02-02T18:58:59;0;0;0
77538;PMS7003;66665;51.656;16.106;2023-02-02T19:02:01;0;0;0
77538;PMS7003;66665;51.656;16.106;2023-02-02T19:05:13;0;0;0
77538;PMS7003;66665;51.656;16.106;2023-02-02T19:08:27;1;0;0
77538;PMS7003;66665;51.656;16.106;2023-02-02T19:14:45;1;1;0
77538;PMS7003;66665;51.656;16.106;2023-02-02T19:17:48;1;1;1
77538;PMS7003;66665;51.656;16.106;2023-02-02T19:20:52;2;1;1
77538;PMS7003;66665;51.656;16.106;2023-02-02T19:23:54;1;1;1
77538;PMS7003;66665;51.656;16.106;2023-02-02T19:26:56;1;1;0
77538;PMS7003;66665;51.656;16.106;2023-02-02T19:30:01;0;0;0
77538;PMS7003;66665;51.656;16.106;2023-02-02T19:33:07;0;0;0
77538;PMS7003;66665;51.656;16.106;2023-02-02T19:39:28;1;1;1
77538;PMS7003;66665;51.656;16.106;2023-02-02T19:42:31;0;0;0
77538;PMS7003;66665;51.656;16.106;2023-02-02T19:45:34;0;0;0
77538;PMS7003;66665;51.656;16.106;2023-02-02T19:48:37;0;0;0
77538;PMS7003;66665;51.656;16.106;2023-02-02T19:51:57;0;0;0
77538;PMS7003;66665;51.656;16.106;2023-02-02T19:54:53;0;0;0
77538;PMS7003;66665;51.656;16.106;2023-02-02T19:57:59;0;0;0
77538;PMS7003;66665;51.656;16.106;2023-02-02T20:01:05;0;0;0
77538;PMS7003;66665;51.656;16.106;2023-02-02T20:04:15;1;0;0
77538;PMS7003;66665;51.656;16.106;2023-02-02T20:07:18;1;1;1
77538;PMS7003;66665;51.656;16.106;2023-02-02T20:10:28;0;0;0
77538;PMS7003;66665;51.656;16.106;2023-02-02T20:13:42;4;0;0
77538;PMS7003;66665;51.656;16.106;2023-02-02T20:16:49;1;0;0
77538;PMS7003;66665;51.656;16.106;2023-02-02T20:19:53;4;2;2
77538;PMS7003;66665;51.656;16.106;2023-02-02T20:22:55;0;0;0
77538;PMS7003;66665;51.656;16.106;2023-02-02T20:25:58;0;0;0
77538;PMS7003;66665;51.656;16.106;2023-02-02T20:29:16;3;2;0
77538;PMS7003;66665;51.656;16.106;2023-02-02T20:32:18;2;1;0
77538;PMS7003;66665;51.656;16.106;2023-02-02T20:38:42;2;1;1
77538;PMS7003;66665;51.656;16.106;2023-02-02T20:41:45;0;0;0
77538;PMS7003;66665;51.656;16.106;2023-02-02T20:44:48;0;0;0
77538;PMS7003;66665;51.656;16.106;2023-02-02T20:47:58;1;0;0
77538;PMS7003;66665;51.656;16.106;2023-02-02T20:51:00;1;1;0
77538;PMS7003;66665;51.656;16.106;2023-02-02T20:56:45;1;1;0
77538;PMS7003;66665;51.656;16.106;2023-02-02T20:59:48;1;1;0
77538;PMS7003;66665;51.656;16.106;2023-02-02T21:02:57;3;1;0
77538;PMS7003;66665;51.656;16.106;2023-02-02T21:05:59;2;1;0
77538;PMS7003;66665;51.656;16.106;2023-02-02T21:09:06;1;0;0
77538;PMS7003;66665;51.656;16.106;2023-02-02T21:12:11;1;1;0
77538;PMS7003;66665;51.656;16.106;2023-02-02T21:15:13;1;1;1
77538;PMS7003;66665;51.656;16.106;2023-02-02T21:18:15;1;1;1
77538;PMS7003;66665;51.656;16.106;2023-02-02T21:21:17;1;1;1
77538;PMS7003;66665;51.656;16.106;2023-02-02T21:24:27;0;0;0
77538;PMS7003;66665;51.656;16.106;2023-02-02T21:27:29;1;1;0
77538;PMS7003;66665;51.656;16.106;2023-02-02T21:30:31;3;1;1
77538;PMS7003;66665;51.656;16.106;2023-02-02T21:33:33;3;3;2
77538;PMS7003;66665;51.656;16.106;2023-02-02T21:36:35;7;6;4
77538;PMS7003;66665;51.656;16.106;2023-02-02T21:39:48;8;8;5
77538;PMS7003;66665;51.656;16.106;2023-02-02T21:42:52;3;3;2
77538;PMS7003;66665;51.656;16.106;2023-02-02T21:45:54;8;4;2
77538;PMS7003;66665;51.656;16.106;2023-02-02T21:48:57;1;1;1
77538;PMS7003;66665;51.656;16.106;2023-02-02T21:52:01;3;3;2
77538;PMS7003;66665;51.656;16.106;2023-02-02T21:55:29;3;2;1
77538;PMS7003;66665;51.656;16.106;2023-02-02T22:01:45;1;1;0
77538;PMS7003;66665;51.656;16.106;2023-02-02T22:04:49;1;1;0
77538;PMS7003;66665;51.656;16.106;2023-02-02T22:07:55;3;1;1
77538;PMS7003;66665;51.656;16.106;2023-02-02T22:10:59;4;3;3
77538;PMS7003;66665;51.656;16.106;2023-02-02T22:14:11;17;11;7
77538;PMS7003;66665;51.656;16.106;2023-02-02T22:23:36;9;7;4
77538;PMS7003;66665;51.656;16.106;2023-02-02T22:26:39;1;1;1
77538;PMS7003;66665;51.656;16.106;2023-02-02T22:29:45;2;2;2
77538;PMS7003;66665;51.656;16.106;2023-02-02T22:32:47;5;3;1
77538;PMS7003;66665;51.656;16.106;2023-02-02T22:35:49;2;2;1
77538;PMS7003;66665;51.656;16.106;2023-02-02T22:38:51;4;3;1
77538;PMS7003;66665;51.656;16.106;2023-02-02T22:41:53;6;6;4
77538;PMS7003;66665;51.656;16.106;2023-02-02T22:44:55;10;8;5
77538;PMS7003;66665;51.656;16.106;2023-02-02T22:47:57;9;5;3
77538;PMS7003;66665;51.656;16.106;2023-02-02T22:51:02;4;4;3
77538;PMS7003;66665;51.656;16.106;2023-02-02T22:54:04;5;5;3
77538;PMS7003;66665;51.656;16.106;2023-02-02T22:57:06;7;4;4
77538;PMS7003;66665;51.656;16.106;2023-02-02T23:00:11;2;2;1
77538;PMS7003;66665;51.656;16.106;2023-02-02T23:03:15;2;2;1
77538;PMS7003;66665;51.656;16.106;2023-02-02T23:06:22;4;3;2
77538;PMS7003;66665;51.656;16.106;2023-02-02T23:09:24;5;5;3
77538;PMS7003;66665;51.656;16.106;2023-02-02T23:12:26;4;3;2
77538;PMS7003;66665;51.656;16.106;2023-02-02T23:15:29;2;2;1
77538;PMS7003;66665;51.656;16.106;2023-02-02T23:18:30;1;1;1
77538;PMS7003;66665;51.656;16.106;2023-02-02T23:21:32;4;2;2
77538;PMS7003;66665;51.656;16.106;2023-02-02T23:24:34;3;1;0
77538;PMS7003;66665;51.656;16.106;2023-02-02T23:27:39;3;3;1
77538;PMS7003;66665;51.656;16.106;2023-02-02T23:30:41;1;1;1
77538;PMS7003;66665;51.656;16.106;2023-02-02T23:33:43;2;2;1
77538;PMS7003;66665;51.656;16.106;2023-02-02T23:36:45;3;1;1
77538;PMS7003;66665;51.656;16.106;2023-02-02T23:39:47;0;0;0
77538;PMS7003;66665;51.656;16.106;2023-02-02T23:42:49;1;1;0
77538;PMS7003;66665;51.656;16.106;2023-02-02T23:45:51;0;0;0
77538;PMS7003;66665;51.656;16.106;2023-02-02T23:48:56;1;1;0
77538;PMS7003;66665;51.656;16.106;2023-02-02T23:52:00;0;0;0
77538;PMS7003;66665;51.656;16.106;2023-02-02T23:55:02;3;1;0
77538;PMS7003;66665;51.656;16.106;2023-02-02T23:58:05;2;1;0
